createdAt,value
2022-09-21T00:00:27.384Z,90.16
2022-09-21T00:05:50.586Z,89.89
2022-09-21T00:10:54.332Z,90.28
2022-09-21T00:15:57.589Z,90.73
2022-09-21T00:21:03.242Z,90.60
2022-09-21T00:26:07.485Z,90.62
2022-09-21T00:31:12.761Z,90.38
2022-09-21T00:36:17.742Z,90.35
2022-09-21T00:41:21.556Z,90.70
2022-09-21T00:46:29.674Z,90.94
2022-09-21T00:51:33.244Z,91.13
2022-09-21T00:56:37.310Z,91.18
2022-09-21T01:01:40.609Z,91.45
2022-09-21T01:06:43.949Z,91.38
2022-09-21T01:11:46.999Z,91.58
2022-09-21T01:17:15.022Z,91.67
2022-09-21T01:22:37.899Z,91.93
2022-09-21T01:27:57.419Z,91.40
2022-09-21T01:33:05.450Z,91.59
2022-09-21T01:38:13.328Z,90.10
2022-09-21T01:43:26.990Z,88.77
2022-09-21T01:48:37.158Z,89.09
2022-09-21T01:53:46.767Z,88.62
2022-09-21T01:58:57.960Z,88.44
2022-09-21T02:04:10.645Z,88.74
2022-09-21T02:09:14.474Z,88.79
2022-09-21T02:14:24.507Z,89.09
2022-09-21T02:19:54.665Z,89.23
2022-09-21T02:25:09.743Z,90.09
2022-09-21T02:30:19.623Z,90.66
2022-09-21T02:35:37.827Z,90.98
2022-09-21T02:40:44.983Z,91.17
2022-09-21T02:45:57.143Z,92.00
2022-09-21T02:51:06.261Z,92.79
2022-09-21T02:56:11.790Z,92.82
2022-09-21T03:01:16.351Z,92.81
2022-09-21T03:06:19.652Z,92.77
2022-09-21T03:11:22.860Z,92.61
2022-09-21T03:16:26.041Z,92.57
2022-09-21T03:21:30.081Z,92.68
2022-09-21T03:26:33.882Z,92.81
2022-09-21T03:31:37.142Z,92.83
2022-09-21T03:36:41.990Z,92.77
2022-09-21T03:41:45.608Z,92.71
2022-09-21T03:46:49.002Z,92.65
2022-09-21T03:51:52.438Z,92.52
2022-09-21T03:56:55.978Z,92.55
2022-09-21T04:01:59.431Z,92.63
2022-09-21T04:07:02.720Z,92.64
2022-09-21T04:12:06.599Z,92.68
2022-09-21T04:17:09.992Z,92.71
2022-09-21T04:22:13.226Z,92.71
2022-09-21T04:27:16.452Z,92.79
2022-09-21T04:32:22.865Z,92.75
2022-09-21T04:37:26.505Z,92.81
2022-09-21T04:42:29.740Z,92.76
2022-09-21T04:47:33.632Z,92.91
2022-09-21T04:52:37.043Z,92.92
2022-09-21T04:57:40.378Z,92.85
2022-09-21T05:02:43.624Z,92.78
2022-09-21T05:07:46.908Z,92.75
2022-09-21T05:12:51.089Z,92.73
2022-09-21T05:17:56.755Z,92.70
2022-09-21T05:23:02.654Z,92.70
2022-09-21T05:28:11.428Z,92.67
2022-09-21T05:33:24.318Z,92.67
2022-09-21T05:38:34.178Z,92.69
2022-09-21T05:43:37.536Z,92.60
2022-09-21T05:48:45.853Z,92.41
2022-09-21T05:54:11.309Z,92.30
2022-09-21T05:59:33.512Z,92.29
2022-09-21T06:04:54.655Z,92.26
2022-09-21T06:10:15.497Z,92.27
2022-09-21T06:15:31.051Z,92.32
2022-09-21T06:20:46.546Z,92.17
2022-09-21T06:25:58.314Z,92.29
2022-09-21T06:31:02.618Z,92.16
2022-09-21T06:36:17.887Z,91.67
2022-09-21T06:41:21.608Z,90.95
2022-09-21T06:46:25.141Z,90.32
2022-09-21T06:51:29.932Z,88.92
2022-09-21T06:56:33.412Z,88.29
2022-09-21T07:01:37.707Z,87.82
2022-09-21T07:06:43.735Z,87.96
2022-09-21T07:11:50.009Z,86.88
2022-09-21T07:16:53.323Z,86.80
2022-09-21T07:21:56.556Z,86.95
2022-09-21T07:26:59.924Z,87.06
2022-09-21T07:32:03.463Z,87.17
2022-09-21T07:37:06.805Z,87.35
2022-09-21T07:42:11.031Z,86.96
2022-09-21T07:47:15.448Z,86.43
2022-09-21T07:52:19.624Z,86.28
2022-09-21T07:57:41.529Z,85.86
2022-09-21T08:02:47.995Z,85.91
2022-09-21T08:07:53.288Z,85.66
2022-09-21T08:12:57.634Z,85.59
2022-09-21T08:18:08.000Z,85.10
2022-09-21T08:23:13.324Z,85.29
2022-09-21T08:28:16.667Z,85.51
2022-09-21T08:33:19.908Z,85.74
2022-09-21T08:38:24.562Z,84.73
2022-09-21T08:43:41.179Z,84.14
2022-09-21T08:48:54.712Z,82.81
2022-09-21T08:54:07.528Z,82.28
2022-09-21T08:59:16.029Z,81.73
2022-09-21T09:05:04.332Z,80.96
2022-09-21T09:10:48.866Z,81.69
2022-09-21T09:16:00.507Z,81.84
2022-09-21T09:21:05.333Z,80.65
2022-09-21T09:26:46.157Z,80.39
2022-09-21T09:31:50.872Z,79.29
2022-09-21T09:37:01.949Z,77.81
2022-09-21T09:42:14.476Z,75.57
2022-09-21T09:47:17.564Z,76.44
2022-09-21T09:52:20.986Z,76.63
2022-09-21T09:57:35.907Z,73.22
2022-09-21T10:02:56.703Z,72.74
2022-09-21T10:08:00.330Z,71.63
2022-09-21T10:13:18.880Z,71.31
2022-09-21T10:18:25.553Z,71.16
2022-09-21T10:23:30.112Z,71.89
2022-09-21T10:28:34.863Z,72.26
2022-09-21T10:34:04.334Z,72.53
2022-09-21T10:39:20.491Z,71.54
2022-09-21T10:44:29.924Z,71.21
2022-09-21T10:49:34.103Z,71.03
2022-09-21T10:54:40.302Z,71.61
2022-09-21T10:59:44.562Z,70.87
2022-09-21T11:04:54.249Z,71.18
2022-09-21T11:10:12.658Z,70.57
2022-09-21T11:15:40.829Z,71.27
2022-09-21T11:20:55.416Z,71.93
2022-09-21T11:26:07.414Z,69.44
2022-09-21T11:31:19.720Z,69.04
2022-09-21T11:36:30.276Z,64.01
2022-09-21T11:41:59.144Z,63.77
2022-09-21T11:47:17.840Z,63.59
2022-09-21T11:52:47.622Z,62.18
2022-09-21T11:58:28.931Z,62.95
2022-09-21T12:03:39.274Z,64.15
2022-09-21T12:09:14.939Z,65.81
2022-09-21T12:14:50.603Z,65.28
2022-09-21T12:20:32.532Z,66.40
2022-09-21T12:25:43.757Z,66.90
2022-09-21T12:30:51.980Z,65.52
2022-09-21T12:36:02.296Z,62.10
2022-09-21T12:41:27.214Z,61.06
2022-09-21T12:46:38.283Z,62.18
2022-09-21T12:51:46.068Z,62.91
2022-09-21T12:56:59.789Z,63.55
2022-09-21T13:02:15.802Z,64.07
2022-09-21T13:07:46.070Z,64.98
2022-09-21T13:12:58.079Z,64.90
2022-09-21T13:18:10.722Z,64.02
2022-09-21T13:23:36.745Z,63.58
2022-09-21T13:29:04.668Z,61.94
2022-09-21T13:34:17.906Z,62.82
2022-09-21T13:39:21.160Z,63.14
2022-09-21T13:44:45.934Z,62.09
2022-09-21T13:49:54.960Z,62.40
2022-09-21T13:55:04.418Z,60.12
2022-09-21T14:00:16.580Z,60.03
2022-09-21T14:05:46.345Z,61.06
2022-09-21T14:11:02.876Z,62.65
2022-09-21T14:16:34.638Z,63.51
2022-09-21T14:21:38.074Z,63.86
2022-09-21T14:26:44.074Z,63.72
2022-09-21T14:31:59.751Z,64.13
2022-09-21T14:37:29.330Z,64.23
2022-09-21T14:42:33.175Z,63.77
2022-09-21T14:47:51.999Z,63.89
2022-09-21T14:53:24.817Z,64.07
2022-09-21T14:58:48.501Z,63.93
2022-09-21T15:04:09.050Z,65.23
2022-09-21T15:10:00.656Z,66.02
2022-09-21T15:15:31.170Z,66.94
2022-09-21T15:20:34.449Z,67.50
2022-09-21T15:25:38.221Z,67.92
2022-09-21T15:30:48.088Z,68.14
2022-09-21T15:35:55.034Z,67.97
2022-09-21T15:41:03.276Z,67.81
2022-09-21T15:46:11.618Z,68.18
2022-09-21T15:51:59.577Z,68.03
2022-09-21T15:57:29.662Z,68.42
2022-09-21T16:03:20.928Z,68.26
2022-09-21T16:08:42.580Z,68.31
2022-09-21T16:14:20.798Z,68.35
2022-09-21T16:20:26.499Z,68.17
2022-09-21T16:25:35.720Z,68.57
2022-09-21T16:30:51.486Z,69.06
2022-09-21T16:35:57.269Z,69.96
2022-09-21T16:41:08.375Z,70.12
2022-09-21T16:46:13.315Z,70.07
2022-09-21T16:51:23.536Z,70.58
2022-09-21T16:56:30.681Z,71.33
2022-09-21T17:01:33.984Z,72.95
2022-09-21T17:06:40.362Z,74.61
2022-09-21T17:11:46.400Z,76.23
2022-09-21T17:16:53.199Z,77.60
2022-09-21T17:22:03.627Z,78.77
2022-09-21T17:27:09.857Z,79.89
2022-09-21T17:32:21.047Z,78.91
2022-09-21T17:37:29.370Z,79.82
2022-09-21T17:42:37.551Z,81.33
2022-09-21T17:47:43.584Z,81.52
2022-09-21T17:53:07.946Z,81.33
2022-09-21T17:58:37.988Z,81.37
2022-09-21T18:03:45.037Z,82.71
2022-09-21T18:08:48.938Z,82.39
2022-09-21T18:14:26.794Z,82.87
2022-09-21T18:19:58.965Z,83.82
2022-09-21T18:25:19.468Z,84.20
2022-09-21T18:30:23.753Z,83.87
2022-09-21T18:35:49.237Z,83.58
2022-09-21T18:41:41.487Z,84.68
2022-09-21T18:46:53.734Z,85.19
2022-09-21T18:52:11.330Z,85.52
2022-09-21T18:57:15.714Z,86.20
2022-09-21T19:02:22.461Z,86.78
2022-09-21T19:07:28.793Z,87.07
2022-09-21T19:13:03.345Z,87.70
2022-09-21T19:18:32.124Z,87.96
2022-09-21T19:24:08.157Z,88.20
2022-09-21T19:29:19.307Z,88.62
2022-09-21T19:34:22.901Z,89.37
2022-09-21T19:39:26.720Z,89.29
2022-09-21T19:44:54.414Z,89.75
2022-09-21T19:50:20.507Z,89.24
2022-09-21T19:55:42.872Z,89.70
2022-09-21T20:00:52.913Z,89.24
2022-09-21T20:06:17.047Z,89.25
2022-09-21T20:11:58.033Z,88.81
2022-09-21T20:17:10.220Z,89.67
2022-09-21T20:22:18.142Z,88.00
2022-09-21T20:27:35.068Z,88.85
2022-09-21T20:32:42.995Z,88.24
2022-09-21T20:37:46.289Z,88.94
2022-09-21T20:42:54.207Z,89.09
2022-09-21T20:48:24.594Z,88.51
2022-09-21T20:53:37.576Z,88.94
2022-09-21T20:58:45.551Z,88.53
2022-09-21T21:03:49.533Z,88.87
2022-09-21T21:08:53.386Z,88.96
2022-09-21T21:13:56.832Z,89.41
2022-09-21T21:19:06.641Z,89.39
2022-09-21T21:24:34.753Z,89.81
2022-09-21T21:29:38.630Z,89.75
2022-09-21T21:34:44.108Z,89.83
2022-09-21T21:39:50.250Z,88.71
2022-09-21T21:45:06.169Z,89.50
2022-09-21T21:50:13.075Z,88.96
2022-09-21T21:55:16.527Z,89.79
2022-09-21T22:00:22.528Z,89.66
2022-09-21T22:05:27.221Z,90.36
2022-09-21T22:10:30.952Z,90.60
2022-09-21T22:15:34.737Z,90.25
2022-09-21T22:20:42.763Z,90.38
2022-09-21T22:25:46.702Z,90.37
2022-09-21T22:30:50.187Z,90.31
2022-09-21T22:35:54.314Z,90.45
2022-09-21T22:41:13.125Z,90.48
2022-09-21T22:46:17.143Z,90.25
2022-09-21T22:51:21.703Z,90.78
2022-09-21T22:56:30.232Z,89.94
2022-09-21T23:01:36.900Z,90.14
2022-09-21T23:06:42.888Z,90.61
2022-09-21T23:11:49.246Z,90.65
2022-09-21T23:16:53.902Z,90.35
2022-09-21T23:21:57.874Z,90.51
2022-09-21T23:27:04.992Z,90.75
2022-09-21T23:32:25.793Z,90.67
2022-09-21T23:37:30.126Z,91.05
2022-09-21T23:42:34.560Z,90.57
2022-09-21T23:47:42.687Z,91.20
2022-09-21T23:52:47.013Z,90.57
2022-09-21T23:57:51.545Z,90.30
